createdAt,value
2018-04-14T00:01:22.433Z,14.60
2018-04-14T00:03:50.679Z,14.60
2018-04-14T00:06:18.557Z,14.50
2018-04-14T00:08:46.523Z,14.60
2018-04-14T00:11:14.080Z,14.50
2018-04-14T00:13:41.835Z,14.50
2018-04-14T00:16:09.399Z,14.50
2018-04-14T00:18:37.065Z,14.40
2018-04-14T00:21:04.518Z,14.40
2018-04-14T00:23:32.173Z,14.40
2018-04-14T00:25:59.638Z,14.30
2018-04-14T00:28:27.134Z,14.30
2018-04-14T00:30:55.106Z,14.20
2018-04-14T00:33:22.713Z,14.20
2018-04-14T00:35:50.892Z,14.10
2018-04-14T00:38:18.331Z,14.10
2018-04-14T00:40:45.774Z,14.10
2018-04-14T00:43:14.189Z,14.00
2018-04-14T00:45:43.175Z,14.00
2018-04-14T00:48:12.282Z,13.90
2018-04-14T00:50:39.736Z,13.90
2018-04-14T00:53:19.955Z,13.90
2018-04-14T00:55:47.951Z,13.90
2018-04-14T00:58:16.163Z,13.90
2018-04-14T01:00:44.407Z,13.90
2018-04-14T01:03:11.899Z,13.90
2018-04-14T01:05:40.326Z,13.80
2018-04-14T01:08:08.124Z,13.80
2018-04-14T01:10:35.597Z,13.80
2018-04-14T01:13:03.824Z,13.80
2018-04-14T01:15:31.359Z,13.80
2018-04-14T01:17:59.396Z,13.80
2018-04-14T01:20:27.613Z,13.70
2018-04-14T01:22:55.086Z,13.70
2018-04-14T01:25:22.556Z,13.70
2018-04-14T01:27:50.053Z,13.70
2018-04-14T01:30:17.766Z,13.70
2018-04-14T01:32:45.262Z,13.60
2018-04-14T01:35:15.043Z,13.60
2018-04-14T01:37:43.279Z,13.60
2018-04-14T01:40:10.838Z,13.60
2018-04-14T01:42:39.157Z,13.50
2018-04-14T01:45:06.672Z,13.50
2018-04-14T01:47:34.574Z,13.50
2018-04-14T01:50:02.019Z,13.50
2018-04-14T01:52:29.552Z,13.40
2018-04-14T01:54:57.455Z,13.40
2018-04-14T01:57:24.906Z,13.40
2018-04-14T01:59:52.414Z,13.40
2018-04-14T02:02:19.870Z,13.40
2018-04-14T02:04:48.306Z,13.40
2018-04-14T02:07:16.287Z,13.40
2018-04-14T02:09:43.781Z,13.40
2018-04-14T02:12:11.808Z,13.50
2018-04-14T02:14:39.303Z,13.50
2018-04-14T02:17:07.589Z,13.60
2018-04-14T02:19:36.675Z,13.60
2018-04-14T02:22:04.907Z,13.60
2018-04-14T02:24:32.374Z,13.60
2018-04-14T02:26:59.823Z,13.60
2018-04-14T02:29:27.300Z,13.60
2018-04-14T02:31:55.961Z,13.50
2018-04-14T02:34:23.511Z,13.50
2018-04-14T02:36:52.932Z,13.50
2018-04-14T02:39:21.809Z,13.50
2018-04-14T02:41:50.185Z,13.40
2018-04-14T02:44:18.262Z,13.40
2018-04-14T02:46:46.125Z,13.50
2018-04-14T02:49:14.334Z,13.50
2018-04-14T02:51:42.879Z,13.60
2018-04-14T02:54:10.360Z,13.60
2018-04-14T02:56:39.935Z,13.60
2018-04-14T02:59:07.567Z,13.60
2018-04-14T03:01:35.008Z,13.60
2018-04-14T03:04:02.484Z,13.60
2018-04-14T03:06:30.383Z,13.70
2018-04-14T03:08:58.147Z,13.70
2018-04-14T03:11:26.114Z,13.70
2018-04-14T03:13:53.600Z,13.70
2018-04-14T03:16:22.258Z,13.60
2018-04-14T03:18:50.198Z,13.60
2018-04-14T03:21:17.646Z,13.60
2018-04-14T03:23:45.167Z,13.60
2018-04-14T03:26:13.519Z,13.60
2018-04-14T03:28:41.186Z,13.60
2018-04-14T03:31:09.067Z,13.70
2018-04-14T03:33:37.341Z,13.70
2018-04-14T03:36:05.164Z,13.70
2018-04-14T03:38:32.739Z,13.70
2018-04-14T03:41:00.399Z,13.70
2018-04-14T03:43:28.068Z,13.80
2018-04-14T03:45:55.518Z,13.80
2018-04-14T03:48:23.084Z,13.80
2018-04-14T03:50:50.536Z,13.90
2018-04-14T03:53:18.400Z,13.90
2018-04-14T03:55:46.266Z,13.90
2018-04-14T03:58:13.745Z,13.90
2018-04-14T04:00:41.274Z,13.90
2018-04-14T04:03:08.846Z,13.80
2018-04-14T04:05:36.726Z,13.80
2018-04-14T04:08:04.515Z,13.70
2018-04-14T04:10:32.296Z,13.70
2018-04-14T04:12:59.744Z,13.60
2018-04-14T04:15:27.410Z,13.70
2018-04-14T04:17:55.212Z,13.60
2018-04-14T04:20:28.533Z,13.60
2018-04-14T04:23:08.069Z,13.70
2018-04-14T04:25:43.306Z,13.60
2018-04-14T04:28:11.733Z,13.70
2018-04-14T04:30:39.633Z,13.70
2018-04-14T04:33:07.551Z,13.70
2018-04-14T04:35:36.290Z,13.70
2018-04-14T04:38:03.747Z,13.70
2018-04-14T04:40:31.200Z,13.70
2018-04-14T04:42:59.246Z,13.70
2018-04-14T04:45:26.715Z,13.70
2018-04-14T04:47:54.340Z,13.70
2018-04-14T04:50:21.823Z,13.70
2018-04-14T04:52:49.303Z,13.60
2018-04-14T04:55:17.131Z,13.60
2018-04-14T04:57:44.589Z,13.60
2018-04-14T05:00:12.385Z,13.60
2018-04-14T05:02:39.839Z,13.60
2018-04-14T05:05:07.816Z,13.60
2018-04-14T05:07:35.789Z,13.60
2018-04-14T05:10:04.016Z,13.60
2018-04-14T05:12:31.955Z,13.60
2018-04-14T05:15:00.188Z,13.50
2018-04-14T05:17:27.703Z,13.50
2018-04-14T05:19:55.624Z,13.50
2018-04-14T05:22:23.125Z,13.40
2018-04-14T05:24:51.466Z,13.40
2018-04-14T05:27:19.727Z,13.40
2018-04-14T05:29:47.249Z,13.40
2018-04-14T05:32:14.700Z,13.30
2018-04-14T05:34:43.540Z,13.30
2018-04-14T05:37:11.014Z,13.20
2018-04-14T05:46:24.986Z,13.10
2018-04-14T05:48:53.204Z,12.80
2018-04-14T05:51:20.725Z,12.70
2018-04-14T05:53:48.172Z,12.70
2018-04-14T05:56:16.272Z,12.80
2018-04-14T05:58:44.485Z,12.80
2018-04-14T06:01:11.960Z,12.70
2018-04-14T06:03:40.324Z,12.80
2018-04-14T06:06:08.834Z,12.70
2018-04-14T06:08:36.904Z,12.60
2018-04-14T06:11:05.384Z,12.60
2018-04-14T06:13:34.212Z,12.60
2018-04-14T06:16:02.445Z,12.70
2018-04-14T06:18:30.411Z,12.70
2018-04-14T06:20:58.065Z,12.70
2018-04-14T06:23:25.499Z,12.80
2018-04-14T06:25:53.164Z,12.90
2018-04-14T06:28:20.611Z,12.90
2018-04-14T06:30:48.280Z,12.90
2018-04-14T06:33:16.353Z,12.90
2018-04-14T06:35:44.116Z,12.80
2018-04-14T06:38:11.563Z,12.80
2018-04-14T06:40:39.062Z,12.90
2018-04-14T06:43:06.940Z,13.00
2018-04-14T06:45:34.423Z,12.90
2018-04-14T06:48:03.184Z,13.00
2018-04-14T06:50:30.655Z,12.90
2018-04-14T06:52:58.900Z,13.00
2018-04-14T06:55:26.671Z,13.00
2018-04-14T06:57:54.655Z,13.10
2018-04-14T07:00:22.114Z,13.10
2018-04-14T07:02:50.326Z,13.10
2018-04-14T07:05:18.208Z,13.10
2018-04-14T07:07:45.905Z,13.10
2018-04-14T07:10:13.421Z,13.00
2018-04-14T07:12:40.954Z,12.90
2018-04-14T07:15:09.605Z,13.00
2018-04-14T07:17:37.057Z,12.90
2018-04-14T07:20:05.743Z,13.00
2018-04-14T07:22:33.196Z,13.00
2018-04-14T07:25:00.643Z,13.00
2018-04-14T07:27:28.204Z,13.10
2018-04-14T07:29:55.881Z,13.00
2018-04-14T07:32:23.394Z,13.00
2018-04-14T07:34:51.207Z,13.00
2018-04-14T07:37:19.307Z,13.00
2018-04-14T07:39:47.535Z,13.10
2018-04-14T07:42:16.338Z,13.10
2018-04-14T07:44:43.806Z,13.20
2018-04-14T07:47:11.368Z,13.20
2018-04-14T07:49:40.267Z,13.30
2018-04-14T07:52:08.500Z,13.30
2018-04-14T07:54:36.286Z,13.30
2018-04-14T07:57:04.239Z,13.30
2018-04-14T07:59:31.690Z,13.40
2018-04-14T08:01:59.159Z,13.40
2018-04-14T08:04:27.323Z,13.40
2018-04-14T08:06:55.603Z,13.40
2018-04-14T08:09:23.382Z,13.50
2018-04-14T08:11:50.893Z,13.50
2018-04-14T08:14:18.485Z,13.50
2018-04-14T08:16:45.926Z,13.50
2018-04-14T08:19:14.723Z,13.60
2018-04-14T08:21:42.187Z,13.60
2018-04-14T08:24:09.664Z,13.60
2018-04-14T08:26:37.131Z,13.60
2018-04-14T08:29:05.754Z,13.80
2018-04-14T08:31:33.219Z,13.70
2018-04-14T08:34:00.878Z,13.80
2018-04-14T08:36:29.287Z,13.80
2018-04-14T08:38:58.137Z,13.80
2018-04-14T08:41:26.599Z,13.80
2018-04-14T08:43:54.072Z,13.90
2018-04-14T08:46:21.517Z,13.90
2018-04-14T08:48:49.804Z,13.90
2018-04-14T08:51:17.262Z,13.90
2018-04-14T08:53:45.166Z,14.00
2018-04-14T08:56:12.919Z,14.10
2018-04-14T08:58:40.373Z,14.20
2018-04-14T09:01:08.160Z,14.20
2018-04-14T09:03:36.824Z,14.20
2018-04-14T09:06:05.303Z,14.20
2018-04-14T09:08:32.983Z,14.10
2018-04-14T09:11:01.997Z,14.10
2018-04-14T09:13:30.231Z,14.20
2018-04-14T09:15:57.692Z,14.20
2018-04-14T09:18:25.665Z,14.20
2018-04-14T09:20:53.202Z,14.30
2018-04-14T09:23:22.024Z,14.20
2018-04-14T09:25:49.619Z,14.20
2018-04-14T09:28:17.839Z,14.10
2018-04-14T09:30:45.411Z,14.00
2018-04-14T09:33:13.345Z,14.00
2018-04-14T09:35:41.259Z,13.90
2018-04-14T09:38:08.723Z,13.90
2018-04-14T09:40:36.583Z,13.90
2018-04-14T09:43:04.311Z,14.00
2018-04-14T09:45:31.779Z,14.00
2018-04-14T09:47:59.649Z,14.00
2018-04-14T09:50:27.177Z,14.10
2018-04-14T09:52:54.743Z,14.10
2018-04-14T09:55:22.539Z,14.20
2018-04-14T09:57:50.199Z,14.30
2018-04-14T10:00:23.319Z,14.40
2018-04-14T10:02:52.033Z,14.30
2018-04-14T10:05:20.631Z,14.30
2018-04-14T10:07:48.427Z,14.30
2018-04-14T10:10:15.972Z,14.30
2018-04-14T10:12:43.450Z,14.30
2018-04-14T10:15:11.775Z,14.20
2018-04-14T10:17:39.267Z,14.20
2018-04-14T10:20:06.927Z,14.20
2018-04-14T10:22:34.440Z,14.30
2018-04-14T10:25:02.293Z,14.40
2018-04-14T10:27:30.523Z,14.30
2018-04-14T10:29:57.987Z,14.30
2018-04-14T10:32:26.968Z,14.30
2018-04-14T10:34:55.114Z,14.30
2018-04-14T10:37:22.956Z,14.30
2018-04-14T10:39:50.691Z,14.30
2018-04-14T10:42:19.155Z,14.40
2018-04-14T10:44:46.605Z,14.40
2018-04-14T10:47:14.183Z,14.40
2018-04-14T10:49:41.693Z,14.50
2018-04-14T10:52:09.172Z,14.50
2018-04-14T10:54:36.621Z,14.50
2018-04-14T10:57:05.067Z,14.60
2018-04-14T10:59:32.519Z,14.70
2018-04-14T11:02:01.136Z,14.80
2018-04-14T11:04:28.578Z,14.80
2018-04-14T11:06:56.590Z,14.80
2018-04-14T11:09:24.554Z,14.90
2018-04-14T11:11:52.023Z,15.00
2018-04-14T11:14:19.539Z,15.10
2018-04-14T11:16:47.063Z,15.10
2018-04-14T11:19:15.713Z,15.10
2018-04-14T11:21:43.187Z,15.10
2018-04-14T11:24:11.765Z,15.30
2018-04-14T11:26:40.445Z,15.30
2018-04-14T11:29:07.896Z,15.30
2018-04-14T11:31:35.752Z,15.30
2018-04-14T11:34:03.206Z,15.40
2018-04-14T11:36:30.996Z,15.50
2018-04-14T11:38:58.448Z,15.50
2018-04-14T11:41:26.319Z,15.50
2018-04-14T11:43:53.769Z,15.60
2018-04-14T11:46:21.430Z,15.70
2018-04-14T11:48:48.884Z,16.00
2018-04-14T11:51:16.352Z,16.30
2018-04-14T11:53:43.803Z,16.50
2018-04-14T11:56:11.556Z,16.80
2018-04-14T11:58:39.016Z,16.90
2018-04-14T12:01:06.686Z,16.90
2018-04-14T12:03:34.198Z,17.00
2018-04-14T12:06:01.656Z,17.20
2018-04-14T12:08:30.500Z,17.40
2018-04-14T12:10:57.955Z,17.50
2018-04-14T12:13:27.130Z,17.50
2018-04-14T12:15:54.576Z,17.50
2018-04-14T12:18:22.365Z,17.50
2018-04-14T12:20:51.313Z,17.70
2018-04-14T12:23:18.806Z,17.70
2018-04-14T12:25:46.240Z,17.70
2018-04-14T12:28:13.727Z,17.90
2018-04-14T12:30:42.679Z,17.80
2018-04-14T12:33:10.294Z,17.80
2018-04-14T12:35:39.872Z,17.70
2018-04-14T12:38:07.532Z,17.70
2018-04-14T12:40:35.278Z,17.70
2018-04-14T12:43:04.016Z,17.60
2018-04-14T12:45:32.330Z,17.50
2018-04-14T12:47:59.871Z,17.50
2018-04-14T12:50:27.579Z,17.60
2018-04-14T12:52:55.139Z,17.60
2018-04-14T12:55:22.916Z,17.70
2018-04-14T12:57:50.367Z,18.00
2018-04-14T13:00:18.163Z,18.30
2018-04-14T13:02:46.431Z,18.80
2018-04-14T13:05:14.413Z,18.80
2018-04-14T13:07:43.337Z,19.20
2018-04-14T13:10:11.029Z,19.20
2018-04-14T13:12:38.480Z,19.50
2018-04-14T13:15:07.398Z,19.90
2018-04-14T13:17:35.243Z,20.20
2018-04-14T13:20:03.039Z,20.40
2018-04-14T13:22:31.891Z,20.80
2018-04-14T13:24:59.449Z,20.80
2018-04-14T13:27:27.488Z,20.80
2018-04-14T13:29:54.935Z,20.80
2018-04-14T13:32:22.444Z,21.00
2018-04-14T13:34:50.318Z,21.20
2018-04-14T13:37:17.777Z,21.40
2018-04-14T13:39:45.449Z,21.60
2018-04-14T13:42:13.961Z,21.90
2018-04-14T13:44:41.409Z,21.90
2018-04-14T13:47:09.250Z,22.00
2018-04-14T13:49:36.696Z,22.10
2018-04-14T13:52:04.447Z,22.20
2018-04-14T13:54:32.878Z,22.10
2018-04-14T13:57:00.692Z,22.10
2018-04-14T13:59:28.512Z,22.20
2018-04-14T14:01:56.021Z,22.10
2018-04-14T14:04:23.472Z,22.10
2018-04-14T14:06:51.167Z,22.20
2018-04-14T14:09:19.789Z,22.20
2018-04-14T14:11:47.269Z,22.20
2018-04-14T14:14:14.792Z,22.30
2018-04-14T14:16:42.288Z,22.30
2018-04-14T14:19:10.152Z,22.20
2018-04-14T14:21:37.624Z,22.20
2018-04-14T14:24:05.085Z,22.20
2018-04-14T14:26:32.569Z,22.30
2018-04-14T14:29:00.785Z,22.40
2018-04-14T14:31:28.369Z,22.40
2018-04-14T14:33:55.815Z,22.40
2018-04-14T14:36:23.783Z,22.50
2018-04-14T14:38:51.230Z,22.50
2018-04-14T14:41:19.248Z,22.70
2018-04-14T14:43:47.889Z,22.90
2018-04-14T14:46:16.103Z,23.00
2018-04-14T14:48:44.311Z,23.00
2018-04-14T14:51:12.478Z,23.00
2018-04-14T14:53:39.923Z,23.00
2018-04-14T14:56:07.776Z,22.90
2018-04-14T14:58:36.316Z,23.00
2018-04-14T15:01:03.767Z,23.00
2018-04-14T15:03:31.759Z,23.10
2018-04-14T15:05:59.218Z,23.10
2018-04-14T15:08:27.184Z,23.20
2018-04-14T15:10:54.672Z,23.30
2018-04-14T15:13:22.150Z,23.40
2018-04-14T15:15:49.619Z,23.40
2018-04-14T15:18:18.383Z,23.50
2018-04-14T15:20:45.854Z,23.50
2018-04-14T15:23:13.287Z,23.50
2018-04-14T15:25:40.769Z,23.50
2018-04-14T15:28:08.423Z,23.50
2018-04-14T15:30:35.937Z,23.50
2018-04-14T15:33:03.378Z,23.60
2018-04-14T15:35:31.248Z,23.60
2018-04-14T15:37:58.704Z,23.50
2018-04-14T15:40:26.282Z,23.50
2018-04-14T15:42:54.867Z,23.30
2018-04-14T15:45:23.182Z,23.20
2018-04-14T15:47:50.653Z,23.20
2018-04-14T15:50:18.613Z,23.20
2018-04-14T15:52:46.258Z,23.10
2018-04-14T15:55:13.928Z,23.00
2018-04-14T15:57:41.932Z,22.90
2018-04-14T16:00:09.392Z,22.90
2018-04-14T16:02:36.869Z,22.80
2018-04-14T16:05:04.298Z,22.80
2018-04-14T16:07:32.072Z,22.80
2018-04-14T16:09:59.585Z,22.70
2018-04-14T16:12:27.318Z,22.50
2018-04-14T16:14:55.546Z,22.30
2018-04-14T16:17:23.388Z,22.30
2018-04-14T16:19:51.290Z,22.10
2018-04-14T16:22:18.746Z,22.00
2018-04-14T16:24:46.222Z,21.80
2018-04-14T16:27:13.704Z,21.70
2018-04-14T16:29:42.025Z,21.50
2018-04-14T16:32:09.479Z,21.50
2018-04-14T16:34:37.005Z,21.50
2018-04-14T16:37:05.477Z,21.40
2018-04-14T16:39:33.733Z,21.40
2018-04-14T16:42:01.482Z,21.40
2018-04-14T16:44:28.971Z,21.40
2018-04-14T16:46:56.418Z,21.40
2018-04-14T16:49:24.737Z,21.40
2018-04-14T16:51:53.349Z,21.30
2018-04-14T16:54:20.828Z,21.30
2018-04-14T16:56:49.508Z,21.30
2018-04-14T16:59:17.144Z,21.30
2018-04-14T17:01:44.592Z,21.20
2018-04-14T17:04:12.434Z,21.20
2018-04-14T17:06:39.992Z,21.20
2018-04-14T17:09:08.668Z,21.20
2018-04-14T17:11:36.106Z,21.20
2018-04-14T17:14:04.379Z,21.10
2018-04-14T17:16:32.598Z,21.00
2018-04-14T17:19:00.522Z,21.00
2018-04-14T17:21:28.920Z,21.00
2018-04-14T17:23:56.403Z,21.00
2018-04-14T17:26:23.837Z,21.00
2018-04-14T17:28:51.735Z,20.90
2018-04-14T17:31:19.203Z,20.90
2018-04-14T17:33:46.670Z,20.80
2018-04-14T17:36:14.555Z,20.70
2018-04-14T17:38:42.793Z,20.40
2018-04-14T17:41:10.730Z,20.40
2018-04-14T17:43:38.496Z,20.20
2018-04-14T17:46:06.146Z,20.10
2018-04-14T17:48:33.674Z,19.90
2018-04-14T17:51:01.740Z,19.80
2018-04-14T17:53:30.010Z,19.50
2018-04-14T17:55:58.011Z,19.40
2018-04-14T17:58:25.736Z,19.40
2018-04-14T18:00:53.186Z,19.20
2018-04-14T18:03:20.744Z,19.10
2018-04-14T18:05:48.384Z,19.00
2018-04-14T18:08:16.242Z,18.90
2018-04-14T18:10:43.789Z,18.80
2018-04-14T18:13:11.264Z,18.70
2018-04-14T18:15:38.729Z,18.60
2018-04-14T18:18:06.915Z,18.60
2018-04-14T18:20:34.577Z,18.50
2018-04-14T18:23:02.053Z,18.40
2018-04-14T18:25:30.258Z,18.40
2018-04-14T18:27:57.725Z,18.30
2018-04-14T18:30:25.419Z,18.30
2018-04-14T18:32:52.950Z,18.30
2018-04-14T18:35:20.750Z,18.20
2018-04-14T18:37:48.313Z,18.20
2018-04-14T18:40:15.764Z,18.10
2018-04-14T18:42:43.623Z,18.10
2018-04-14T18:45:12.215Z,18.00
2018-04-14T18:47:40.118Z,17.90
2018-04-14T18:50:07.598Z,17.90
2018-04-14T18:52:36.451Z,17.90
2018-04-14T18:55:05.113Z,17.90
2018-04-14T18:57:33.489Z,17.90
2018-04-14T19:00:00.945Z,17.90
2018-04-14T19:02:28.441Z,17.90
2018-04-14T19:04:56.072Z,17.80
2018-04-14T19:07:23.985Z,17.80
2018-04-14T19:09:51.440Z,17.80
2018-04-14T19:12:18.931Z,17.70
2018-04-14T19:14:46.416Z,17.60
2018-04-14T19:17:13.938Z,17.60
2018-04-14T19:19:42.051Z,17.60
2018-04-14T19:22:09.520Z,17.50
2018-04-14T19:24:37.770Z,17.40
2018-04-14T19:27:05.291Z,17.40
2018-04-14T19:29:32.979Z,17.40
2018-04-14T19:32:00.431Z,17.40
2018-04-14T19:34:28.540Z,17.30
2018-04-14T19:36:57.100Z,17.20
2018-04-14T19:39:26.396Z,17.20
2018-04-14T19:41:54.195Z,17.20
2018-04-14T19:44:22.410Z,17.20
2018-04-14T19:46:49.878Z,17.20
2018-04-14T19:49:17.351Z,17.30
2018-04-14T19:51:45.563Z,17.30
2018-04-14T19:54:13.030Z,17.30
2018-04-14T19:56:41.692Z,17.30
2018-04-14T19:59:09.928Z,17.30
2018-04-14T20:01:37.409Z,17.20
2018-04-14T20:04:05.631Z,17.30
2018-04-14T20:06:33.197Z,17.30
2018-04-14T20:09:01.023Z,17.30
2018-04-14T20:11:29.261Z,17.20
2018-04-14T20:13:56.703Z,17.20
2018-04-14T20:16:24.162Z,17.10
2018-04-14T20:18:51.961Z,17.10
2018-04-14T20:21:20.703Z,17.10
2018-04-14T20:23:49.227Z,17.00
2018-04-14T20:26:16.677Z,17.00
2018-04-14T20:28:44.615Z,16.90
2018-04-14T20:31:12.081Z,16.90
2018-04-14T20:38:17.505Z,16.90
2018-04-14T20:40:45.420Z,16.80
2018-04-14T20:43:13.242Z,16.80
2018-04-14T20:45:40.721Z,16.70
2018-04-14T20:48:08.542Z,16.70
2018-04-14T20:50:36.796Z,16.60
2018-04-14T20:53:05.038Z,16.60
2018-04-14T20:55:32.788Z,16.50
2018-04-14T20:58:00.228Z,16.50
2018-04-14T21:00:28.178Z,16.40
2018-04-14T21:02:55.664Z,16.30
2018-04-14T21:05:23.164Z,16.30
2018-04-14T21:07:51.040Z,16.20
2018-04-14T21:10:18.544Z,16.10
2018-04-14T21:12:45.995Z,16.10
2018-04-14T21:15:13.521Z,16.00
2018-04-14T21:17:41.450Z,16.00
2018-04-14T21:20:09.311Z,15.90
2018-04-14T21:22:37.384Z,15.90
2018-04-14T21:25:05.663Z,15.80
2018-04-14T21:27:33.120Z,15.80
2018-04-14T21:30:00.731Z,15.80
2018-04-14T21:32:28.372Z,15.80
2018-04-14T21:34:57.912Z,15.80
2018-04-14T21:37:28.378Z,15.70
2018-04-14T21:39:56.231Z,15.70
2018-04-14T21:42:23.922Z,15.70
2018-04-14T21:44:51.428Z,15.70
2018-04-14T21:47:18.900Z,15.70
2018-04-14T21:49:46.353Z,15.70
2018-04-14T21:52:14.189Z,15.70
2018-04-14T21:54:43.168Z,15.70
2018-04-14T21:57:10.666Z,15.70
2018-04-14T21:59:38.117Z,15.70
2018-04-14T22:02:06.672Z,15.80
2018-04-14T22:04:34.144Z,15.70
2018-04-14T22:07:03.132Z,15.70
2018-04-14T22:09:30.590Z,15.80
2018-04-14T22:11:59.711Z,15.80
2018-04-14T22:14:32.949Z,15.80
2018-04-14T22:17:01.272Z,15.80
2018-04-14T22:19:29.082Z,15.80
2018-04-14T22:21:57.573Z,15.80
2018-04-14T22:24:25.066Z,15.80
2018-04-14T22:26:53.444Z,15.80
2018-04-14T22:29:22.048Z,15.80
2018-04-14T22:31:49.524Z,15.80
2018-04-14T22:34:17.029Z,15.80
2018-04-14T22:36:45.479Z,15.80
2018-04-14T22:39:13.016Z,15.70
2018-04-14T22:41:41.850Z,15.80
2018-04-14T22:44:09.350Z,15.70
2018-04-14T22:46:36.834Z,15.70
2018-04-14T22:49:04.303Z,15.70
2018-04-14T22:51:32.234Z,15.70
2018-04-14T22:53:59.996Z,15.70
2018-04-14T22:56:27.796Z,15.70
2018-04-14T22:58:55.246Z,15.70
2018-04-14T23:01:22.740Z,15.70
2018-04-14T23:03:50.950Z,15.80
2018-04-14T23:06:18.563Z,15.80
2018-04-14T23:08:46.634Z,15.80
2018-04-14T23:11:14.100Z,15.80
2018-04-14T23:13:42.375Z,15.80
2018-04-14T23:16:10.408Z,15.70
2018-04-14T23:18:38.441Z,15.80
2018-04-14T23:21:05.916Z,15.70
2018-04-14T23:23:33.351Z,15.70
2018-04-14T23:26:00.824Z,15.70
2018-04-14T23:28:28.856Z,15.60
2018-04-14T23:30:57.299Z,15.50
2018-04-14T23:33:24.743Z,15.50
2018-04-14T23:35:52.359Z,15.50
2018-04-14T23:38:20.602Z,15.50
2018-04-14T23:40:48.078Z,15.50
2018-04-14T23:43:16.737Z,15.40
2018-04-14T23:45:44.255Z,15.40
2018-04-14T23:48:11.724Z,15.40
2018-04-14T23:50:39.173Z,15.40
2018-04-14T23:53:06.902Z,15.40
2018-04-14T23:55:35.291Z,15.40
2018-04-14T23:58:02.767Z,15.30
